createdAt,value
2018-06-30T00:01:14.515Z,100231.44
2018-06-30T00:07:00.544Z,100237.73
2018-06-30T00:09:29.138Z,100237.59
2018-06-30T00:11:57.713Z,100238.78
2018-06-30T00:14:26.600Z,100236.11
2018-06-30T00:17:05.093Z,100243.20
2018-06-30T00:19:33.607Z,100242.52
2018-06-30T00:22:03.230Z,100235.83
2018-06-30T00:24:31.796Z,100234.16
2018-06-30T00:27:05.528Z,100231.98
2018-06-30T00:29:34.536Z,100232.68
2018-06-30T00:32:03.825Z,100235.38
2018-06-30T00:34:38.861Z,100233.20
2018-06-30T00:37:07.412Z,100233.54
2018-06-30T00:39:35.963Z,100230.37
2018-06-30T00:42:06.216Z,100229.22
2018-06-30T00:44:34.724Z,100222.52
2018-06-30T00:47:03.227Z,100231.09
2018-06-30T00:52:11.044Z,100228.74
2018-06-30T00:57:13.044Z,100232.78
2018-06-30T00:59:41.582Z,100232.48
2018-06-30T01:02:12.215Z,100234.14
2018-06-30T01:04:40.711Z,100243.51
2018-06-30T01:07:09.705Z,100241.50
2018-06-30T01:09:38.228Z,100245.18
2018-06-30T01:12:08.165Z,100241.16
2018-06-30T01:14:36.960Z,100242.50
2018-06-30T01:19:38.794Z,100248.53
2018-06-30T01:22:11.207Z,100249.88
2018-06-30T01:24:39.755Z,100241.34
2018-06-30T01:27:14.686Z,100243.00
2018-06-30T01:29:43.994Z,100246.36
2018-06-30T01:32:12.567Z,100253.06
2018-06-30T01:34:42.890Z,100253.24
2018-06-30T01:37:11.375Z,100252.89
2018-06-30T01:39:39.946Z,100246.67
2018-06-30T01:42:08.435Z,100248.55
2018-06-30T01:44:37.368Z,100243.15
2018-06-30T01:47:05.902Z,100243.81
2018-06-30T01:49:34.399Z,100245.68
2018-06-30T01:52:09.228Z,100248.67
2018-06-30T01:54:37.759Z,100240.31
2018-06-30T01:57:06.796Z,100243.14
2018-06-30T01:59:35.492Z,100242.25
2018-06-30T02:02:04.753Z,100244.93
2018-06-30T02:04:33.299Z,100244.78
2018-06-30T02:07:12.729Z,100236.38
2018-06-30T02:09:41.588Z,100240.39
2018-06-30T02:12:10.630Z,100244.41
2018-06-30T02:14:39.495Z,100240.37
2018-06-30T02:17:08.379Z,100239.52
2018-06-30T02:19:36.865Z,100241.03
2018-06-30T02:22:05.399Z,100241.52
2018-06-30T02:24:34.420Z,100240.67
2018-06-30T02:27:02.972Z,100243.16
2018-06-30T02:29:37.261Z,100239.50
2018-06-30T02:32:06.255Z,100244.98
2018-06-30T02:34:34.736Z,100242.81
2018-06-30T02:37:03.753Z,100239.60
2018-06-30T02:39:32.232Z,100246.82
2018-06-30T02:42:11.554Z,100245.11
2018-06-30T02:44:40.457Z,100250.28
2018-06-30T02:47:08.964Z,100249.61
2018-06-30T02:49:37.626Z,100250.92
2018-06-30T02:52:06.623Z,100255.62
2018-06-30T02:54:35.224Z,100252.62
2018-06-30T02:57:03.789Z,100251.09
2018-06-30T02:59:32.648Z,100258.09
2018-06-30T03:02:01.845Z,100252.52
2018-06-30T03:04:30.392Z,100250.66
2018-06-30T03:06:59.316Z,100257.84
2018-06-30T03:09:38.662Z,100258.17
2018-06-30T03:12:07.192Z,100257.69
2018-06-30T03:14:39.175Z,100263.15
2018-06-30T03:17:07.680Z,100268.99
2018-06-30T03:19:36.663Z,100270.66
2018-06-30T03:22:05.259Z,100260.78
2018-06-30T03:24:34.376Z,100268.81
2018-06-30T03:27:03.300Z,100265.48
2018-06-30T03:29:31.808Z,100270.48
2018-06-30T03:32:00.289Z,100265.30
2018-06-30T03:34:34.648Z,100270.28
2018-06-30T03:37:03.288Z,100264.23
2018-06-30T03:39:31.743Z,100267.39
2018-06-30T03:42:00.524Z,100264.39
2018-06-30T03:44:29.060Z,100264.72
2018-06-30T03:46:57.569Z,100266.91
2018-06-30T03:49:26.399Z,100263.55
2018-06-30T03:51:55.140Z,100263.72
2018-06-30T03:54:23.595Z,100267.34
2018-06-30T03:56:57.704Z,100263.86
2018-06-30T03:59:26.196Z,100258.64
2018-06-30T04:01:54.740Z,100257.47
2018-06-30T04:04:34.942Z,100262.33
2018-06-30T04:07:03.469Z,100258.31
2018-06-30T04:09:32.290Z,100257.47
2018-06-30T04:12:00.830Z,100265.14
2018-06-30T04:14:29.309Z,100259.66
2018-06-30T04:17:03.152Z,100262.33
2018-06-30T04:19:31.632Z,100264.48
2018-06-30T04:22:03.366Z,100260.98
2018-06-30T04:24:32.239Z,100255.97
2018-06-30T04:27:00.728Z,100261.19
2018-06-30T04:29:29.217Z,100261.80
2018-06-30T04:31:58.149Z,100259.98
2018-06-30T04:34:26.616Z,100262.16
2018-06-30T04:36:55.109Z,100266.53
2018-06-30T04:42:04.340Z,100261.70
2018-06-30T04:44:33.300Z,100269.26
2018-06-30T04:47:01.825Z,100274.11
2018-06-30T04:49:30.343Z,100271.48
2018-06-30T04:51:59.253Z,100270.33
2018-06-30T04:54:28.803Z,100266.20
2018-06-30T04:56:57.353Z,100266.22
2018-06-30T04:59:26.239Z,100272.27
2018-06-30T05:01:57.864Z,100275.63
2018-06-30T05:04:26.367Z,100267.82
2018-06-30T05:06:55.157Z,100270.84
2018-06-30T05:09:23.679Z,100282.91
2018-06-30T05:11:52.156Z,100281.09
2018-06-30T05:14:20.936Z,100280.44
2018-06-30T05:16:49.391Z,100283.32
2018-06-30T05:19:17.906Z,100292.05
2018-06-30T05:21:49.833Z,100291.08
2018-06-30T05:24:18.356Z,100289.77
2018-06-30T05:26:46.882Z,100287.09
2018-06-30T05:29:15.459Z,100286.80
2018-06-30T05:31:46.063Z,100287.48
2018-06-30T05:34:14.664Z,100283.02
2018-06-30T05:39:05.864Z,100287.06
2018-06-30T05:41:34.471Z,100284.25
2018-06-30T05:44:04.170Z,100284.58
2018-06-30T05:46:38.979Z,100286.76
2018-06-30T05:49:13.405Z,100288.77
2018-06-30T05:51:41.949Z,100287.92
2018-06-30T05:54:10.873Z,100285.27
2018-06-30T05:56:39.464Z,100290.28
2018-06-30T05:59:07.976Z,100289.62
2018-06-30T06:01:36.932Z,100287.63
2018-06-30T06:04:06.196Z,100289.11
2018-06-30T06:06:34.955Z,100293.61
2018-06-30T06:09:06.017Z,100290.72
2018-06-30T06:11:34.603Z,100286.17
2018-06-30T06:14:03.928Z,100293.58
2018-06-30T06:16:32.857Z,100301.75
2018-06-30T06:19:01.376Z,100301.56
2018-06-30T06:21:29.893Z,100298.34
2018-06-30T06:23:58.708Z,100301.64
2018-06-30T06:26:27.176Z,100300.60
2018-06-30T06:28:55.755Z,100299.70
2018-06-30T06:31:24.963Z,100300.38
2018-06-30T06:33:53.467Z,100300.16
2018-06-30T06:36:21.981Z,100300.83
2018-06-30T06:38:50.920Z,100300.11
2018-06-30T06:41:19.472Z,100298.37
2018-06-30T06:43:48.004Z,100302.03
2018-06-30T06:46:17.303Z,100302.63
2018-06-30T06:48:45.787Z,100300.24
2018-06-30T06:51:14.234Z,100291.95
2018-06-30T06:53:43.880Z,100301.30
2018-06-30T06:56:12.386Z,100301.95
2018-06-30T06:58:40.959Z,100300.56
2018-06-30T07:01:09.920Z,100297.14
2018-06-30T07:03:38.412Z,100299.13
2018-06-30T07:06:06.924Z,100299.94
2018-06-30T07:08:35.794Z,100303.63
2018-06-30T07:11:04.381Z,100299.21
2018-06-30T07:13:34.439Z,100295.83
2018-06-30T07:16:03.911Z,100298.86
2018-06-30T07:18:32.485Z,100298.47
2018-06-30T07:21:00.972Z,100296.73
2018-06-30T07:23:29.965Z,100295.77
2018-06-30T07:26:28.908Z,100293.20
2018-06-30T07:28:58.260Z,100293.16
2018-06-30T07:31:27.623Z,100291.91
2018-06-30T07:33:56.203Z,100296.80
2018-06-30T07:36:25.173Z,100294.25
2018-06-30T07:38:53.700Z,100300.29
2018-06-30T07:41:22.304Z,100303.13
2018-06-30T07:43:51.091Z,100296.90
2018-06-30T07:46:19.659Z,100295.16
2018-06-30T07:48:48.185Z,100294.35
2018-06-30T07:51:19.320Z,100295.79
2018-06-30T07:53:47.986Z,100293.50
2018-06-30T07:56:16.572Z,100295.73
2018-06-30T07:58:45.516Z,100295.20
2018-06-30T08:01:20.775Z,100292.30
2018-06-30T08:03:49.323Z,100290.41
2018-06-30T08:06:17.820Z,100292.20
2018-06-30T08:08:46.736Z,100295.75
2018-06-30T08:11:19.586Z,100287.78
2018-06-30T08:13:48.085Z,100290.43
2018-06-30T08:16:16.636Z,100292.48
2018-06-30T08:18:45.531Z,100291.41
2018-06-30T08:21:14.159Z,100282.12
2018-06-30T08:23:42.689Z,100290.34
2018-06-30T08:26:11.691Z,100284.56
2018-06-30T08:28:40.212Z,100289.59
2018-06-30T08:31:08.752Z,100287.41
2018-06-30T08:33:37.544Z,100289.11
2018-06-30T08:36:06.464Z,100284.56
2018-06-30T08:38:35.004Z,100285.05
2018-06-30T08:41:03.927Z,100291.09
2018-06-30T08:43:33.596Z,100292.39
2018-06-30T08:46:04.292Z,100291.34
2018-06-30T08:48:33.303Z,100287.86
2018-06-30T08:51:01.888Z,100290.89
2018-06-30T08:53:30.472Z,100297.58
2018-06-30T08:55:59.413Z,100288.25
2018-06-30T08:58:27.950Z,100291.73
2018-06-30T09:01:10.973Z,100281.27
2018-06-30T09:03:39.891Z,100282.16
2018-06-30T09:06:08.345Z,100285.46
2018-06-30T09:08:36.927Z,100287.77
2018-06-30T09:11:05.717Z,100286.95
2018-06-30T09:13:39.359Z,100288.64
2018-06-30T09:16:08.015Z,100288.22
2018-06-30T09:18:36.991Z,100294.71
2018-06-30T09:21:05.606Z,100290.11
2018-06-30T09:23:34.110Z,100290.02
2018-06-30T09:26:05.441Z,100289.18
2018-06-30T09:28:33.960Z,100288.75
2018-06-30T09:31:02.532Z,100280.46
2018-06-30T09:33:34.631Z,100275.28
2018-06-30T09:36:04.639Z,100283.05
2018-06-30T09:38:34.603Z,100276.58
2018-06-30T09:41:03.549Z,100279.28
2018-06-30T09:43:32.103Z,100279.42
2018-06-30T09:46:00.616Z,100276.61
2018-06-30T09:48:29.579Z,100280.39
2018-06-30T09:50:58.126Z,100272.02
2018-06-30T09:53:26.667Z,100268.16
2018-06-30T09:55:55.655Z,100268.34
2018-06-30T09:58:24.184Z,100273.61
2018-06-30T10:00:58.262Z,100267.91
2018-06-30T10:03:32.840Z,100272.34
2018-06-30T10:06:03.128Z,100271.30
2018-06-30T10:08:31.692Z,100266.10
2018-06-30T10:11:00.539Z,100261.08
2018-06-30T10:13:29.093Z,100259.16
2018-06-30T10:15:57.604Z,100256.78
2018-06-30T10:18:26.564Z,100252.33
2018-06-30T10:20:55.149Z,100253.27
2018-06-30T10:23:26.942Z,100254.73
2018-06-30T10:25:55.898Z,100245.61
2018-06-30T10:28:24.450Z,100243.58
2018-06-30T10:30:52.981Z,100236.21
2018-06-30T10:33:32.549Z,100234.25
2018-06-30T10:36:01.170Z,100232.78
2018-06-30T10:38:29.664Z,100237.23
2018-06-30T10:40:58.257Z,100227.37
2018-06-30T10:45:59.195Z,100221.95
2018-06-30T10:48:27.811Z,100223.02
2018-06-30T10:50:56.346Z,100225.53
2018-06-30T10:53:25.488Z,100213.97
2018-06-30T10:55:57.969Z,100212.97
2018-06-30T10:58:38.224Z,100211.61
2018-06-30T11:01:07.537Z,100208.80
2018-06-30T11:03:37.734Z,100210.82
2018-06-30T11:06:06.399Z,100209.67
2018-06-30T11:08:36.355Z,100208.11
2018-06-30T11:11:05.075Z,100203.33
2018-06-30T11:13:33.838Z,100206.61
2018-06-30T11:16:03.168Z,100205.96
2018-06-30T11:18:32.803Z,100199.58
2018-06-30T11:21:01.286Z,100194.59
2018-06-30T11:23:34.949Z,100200.65
2018-06-30T11:26:05.788Z,100201.20
2018-06-30T11:28:34.292Z,100191.45
2018-06-30T11:31:02.821Z,100180.89
2018-06-30T11:33:32.458Z,100181.94
2018-06-30T11:36:00.976Z,100176.72
2018-06-30T11:38:29.488Z,100178.39
2018-06-30T11:40:59.309Z,100183.67
2018-06-30T11:43:28.216Z,100185.48
2018-06-30T11:46:03.807Z,100181.77
2018-06-30T11:48:32.343Z,100179.55
2018-06-30T11:51:06.911Z,100179.92
2018-06-30T11:53:35.424Z,100176.89
2018-06-30T11:56:04.778Z,100183.20
2018-06-30T11:58:33.909Z,100181.43
2018-06-30T12:01:03.428Z,100183.39
2018-06-30T12:03:32.291Z,100177.33
2018-06-30T12:06:01.051Z,100176.05
2018-06-30T12:08:29.590Z,100176.48
2018-06-30T12:11:09.436Z,100169.14
2018-06-30T12:13:38.215Z,100170.58
2018-06-30T12:16:10.289Z,100168.37
2018-06-30T12:18:38.844Z,100168.12
2018-06-30T12:21:10.688Z,100164.17
2018-06-30T12:23:39.256Z,100169.63
2018-06-30T12:26:08.926Z,100154.25
2018-06-30T12:28:37.860Z,100158.59
2018-06-30T12:31:06.981Z,100152.99
2018-06-30T12:33:35.573Z,100149.80
2018-06-30T12:36:04.791Z,100151.39
2018-06-30T12:38:33.653Z,100144.41
2018-06-30T12:41:03.064Z,100139.92
2018-06-30T12:43:31.621Z,100137.28
2018-06-30T12:46:00.445Z,100140.06
2018-06-30T12:48:29.017Z,100139.84
2018-06-30T12:50:57.627Z,100137.38
2018-06-30T12:53:26.461Z,100142.27
2018-06-30T12:55:55.028Z,100140.11
2018-06-30T12:58:23.561Z,100142.61
2018-06-30T13:00:52.385Z,100136.21
2018-06-30T13:03:21.039Z,100131.44
2018-06-30T13:05:49.713Z,100137.08
2018-06-30T13:08:18.262Z,100135.75
2018-06-30T13:10:47.135Z,100122.22
2018-06-30T13:13:15.791Z,100124.13
2018-06-30T13:15:44.627Z,100116.00
2018-06-30T13:18:13.231Z,100111.84
2018-06-30T13:20:42.092Z,100106.17
2018-06-30T13:23:11.055Z,100118.09
2018-06-30T13:25:39.611Z,100115.16
2018-06-30T13:28:08.152Z,100109.16
2018-06-30T13:30:36.939Z,100108.25
2018-06-30T13:33:05.476Z,100117.41
2018-06-30T13:35:33.951Z,100107.00
2018-06-30T13:38:09.971Z,100109.27
2018-06-30T13:40:38.709Z,100111.67
2018-06-30T13:43:07.476Z,100110.98
2018-06-30T13:45:35.966Z,100105.30
2018-06-30T13:48:05.796Z,100095.00
2018-06-30T13:50:34.619Z,100104.23
2018-06-30T13:53:03.236Z,100099.25
2018-06-30T13:55:31.867Z,100095.28
2018-06-30T13:58:01.301Z,100098.80
2018-06-30T14:00:30.116Z,100092.83
2018-06-30T14:02:59.215Z,100086.80
2018-06-30T14:05:28.212Z,100098.30
2018-06-30T14:07:57.026Z,100097.77
2018-06-30T14:10:25.747Z,100089.38
2018-06-30T14:13:01.668Z,100095.97
2018-06-30T14:15:30.407Z,100093.47
2018-06-30T14:18:09.951Z,100098.26
2018-06-30T14:20:38.723Z,100091.11
2018-06-30T14:23:07.267Z,100088.53
2018-06-30T14:25:36.057Z,100095.88
2018-06-30T14:28:06.763Z,100094.67
2018-06-30T14:30:41.495Z,100095.48
2018-06-30T14:33:10.412Z,100091.20
2018-06-30T14:38:19.268Z,100091.50
2018-06-30T14:40:50.937Z,100090.19
2018-06-30T14:43:19.691Z,100088.98
2018-06-30T14:45:48.691Z,100087.33
2018-06-30T14:48:17.707Z,100087.86
2018-06-30T14:50:57.355Z,100082.69
2018-06-30T14:53:26.393Z,100085.59
2018-06-30T14:55:55.335Z,100083.45
2018-06-30T14:58:23.957Z,100078.52
2018-06-30T15:00:52.925Z,100082.95
2018-06-30T15:03:22.889Z,100088.25
2018-06-30T15:05:51.700Z,100090.76
2018-06-30T15:08:20.989Z,100093.80
2018-06-30T15:10:50.035Z,100086.39
2018-06-30T15:13:29.520Z,100088.84
2018-06-30T15:15:58.494Z,100095.64
2018-06-30T15:18:27.104Z,100096.98
2018-06-30T15:20:56.005Z,100100.53
2018-06-30T15:23:31.377Z,100098.17
2018-06-30T15:26:00.163Z,100097.91
2018-06-30T15:28:30.678Z,100096.41
2018-06-30T15:30:59.808Z,100096.83
2018-06-30T15:33:28.511Z,100091.34
2018-06-30T15:36:03.276Z,100089.75
2018-06-30T15:38:32.267Z,100092.41
2018-06-30T15:41:01.482Z,100095.05
2018-06-30T15:43:30.141Z,100102.69
2018-06-30T15:45:58.805Z,100096.24
2018-06-30T15:48:32.691Z,100098.26
2018-06-30T15:51:01.922Z,100097.61
2018-06-30T15:53:30.704Z,100100.42
2018-06-30T15:55:59.253Z,100104.48
2018-06-30T15:58:27.819Z,100105.97
2018-06-30T16:00:56.384Z,100102.98
2018-06-30T16:03:30.993Z,100099.41
2018-06-30T16:05:59.625Z,100096.80
2018-06-30T16:08:28.853Z,100099.20
2018-06-30T16:11:01.055Z,100095.01
2018-06-30T16:13:29.568Z,100109.23
2018-06-30T16:15:58.155Z,100100.30
2018-06-30T16:18:27.052Z,100106.76
2018-06-30T16:20:55.758Z,100107.19
2018-06-30T16:23:25.348Z,100109.90
2018-06-30T16:25:54.302Z,100107.30
2018-06-30T16:28:22.863Z,100109.72
2018-06-30T16:30:58.568Z,100114.52
2018-06-30T16:33:27.178Z,100106.88
2018-06-30T16:35:55.728Z,100109.45
2018-06-30T16:38:24.923Z,100110.69
2018-06-30T16:40:53.449Z,100112.07
2018-06-30T16:43:22.404Z,100104.94
2018-06-30T16:45:51.026Z,100109.17
2018-06-30T16:48:19.632Z,100110.84
2018-06-30T16:50:48.425Z,100121.31
2018-06-30T16:53:21.952Z,100114.83
2018-06-30T16:55:50.501Z,100111.62
2018-06-30T16:58:24.684Z,100114.41
2018-06-30T17:00:53.224Z,100111.86
2018-06-30T17:03:22.011Z,100117.72
2018-06-30T17:05:50.569Z,100109.79
2018-06-30T17:08:20.040Z,100118.84
2018-06-30T17:10:48.564Z,100121.28
2018-06-30T17:13:17.142Z,100118.02
2018-06-30T17:15:47.173Z,100113.68
2018-06-30T17:18:15.809Z,100114.55
2018-06-30T17:20:44.513Z,100120.81
2018-06-30T17:23:13.452Z,100114.33
2018-06-30T17:25:42.032Z,100117.34
2018-06-30T17:28:15.561Z,100117.23
2018-06-30T17:30:44.418Z,100106.92
2018-06-30T17:33:12.948Z,100102.98
2018-06-30T17:35:41.449Z,100106.52
2018-06-30T17:38:12.156Z,100110.15
2018-06-30T17:40:40.681Z,100112.05
2018-06-30T17:43:09.213Z,100110.76
2018-06-30T17:45:38.001Z,100114.52
2018-06-30T17:48:06.653Z,100117.06
2018-06-30T17:50:35.165Z,100116.20
2018-06-30T17:53:10.372Z,100116.13
2018-06-30T17:55:39.672Z,100116.22
2018-06-30T17:58:12.868Z,100127.31
2018-06-30T18:00:42.218Z,100127.80
2018-06-30T18:03:14.180Z,100132.03
2018-06-30T18:05:52.768Z,100130.22
2018-06-30T18:08:22.109Z,100132.67
2018-06-30T18:10:50.828Z,100138.85
2018-06-30T18:13:19.517Z,100137.63
2018-06-30T18:15:51.842Z,100135.37
2018-06-30T18:18:20.479Z,100136.56
2018-06-30T18:20:49.648Z,100146.44
2018-06-30T18:23:21.222Z,100139.18
2018-06-30T18:25:49.968Z,100138.85
2018-06-30T18:28:18.746Z,100140.20
2018-06-30T18:30:47.926Z,100138.77
2018-06-30T18:33:16.934Z,100135.68
2018-06-30T18:35:47.543Z,100138.01
2018-06-30T18:38:16.694Z,100147.47
2018-06-30T18:40:45.796Z,100141.94
2018-06-30T18:43:14.431Z,100145.09
2018-06-30T18:45:43.692Z,100146.36
2018-06-30T18:48:12.615Z,100151.43
2018-06-30T18:50:47.572Z,100152.00
2018-06-30T18:53:16.759Z,100146.80
2018-06-30T18:55:45.577Z,100155.88
2018-06-30T18:58:14.964Z,100154.54
2018-06-30T19:00:45.055Z,100154.47
2018-06-30T19:03:13.854Z,100159.48
2018-06-30T19:05:42.533Z,100162.69
2018-06-30T19:08:13.977Z,100166.70
2018-06-30T19:10:43.746Z,100172.13
2018-06-30T19:13:12.873Z,100171.05
2018-06-30T19:15:43.316Z,100165.64
2018-06-30T19:18:12.265Z,100171.33
2018-06-30T19:23:27.096Z,100171.19
2018-06-30T19:25:56.004Z,100177.47
2018-06-30T19:28:30.986Z,100172.55
2018-06-30T19:30:59.688Z,100180.00
2018-06-30T19:33:28.539Z,100182.87
2018-06-30T19:35:57.833Z,100186.13
2018-06-30T19:38:27.285Z,100185.42
2018-06-30T19:40:56.506Z,100183.53
2018-06-30T19:43:29.578Z,100194.11
2018-06-30T19:45:58.605Z,100194.58
2018-06-30T19:48:27.902Z,100200.52
2018-06-30T19:50:56.494Z,100205.86
2018-06-30T19:53:29.006Z,100211.88
2018-06-30T19:55:58.242Z,100206.35
2018-06-30T19:58:27.146Z,100212.97
2018-06-30T20:00:55.997Z,100211.19
2018-06-30T20:03:31.595Z,100219.27
2018-06-30T20:06:00.149Z,100220.86
2018-06-30T20:08:31.236Z,100226.93
2018-06-30T20:10:59.781Z,100227.17
2018-06-30T20:13:28.339Z,100234.05
2018-06-30T20:15:57.115Z,100233.67
2018-06-30T20:18:29.107Z,100237.24
2018-06-30T20:20:57.675Z,100239.50
2018-06-30T20:26:00.116Z,100249.66
2018-06-30T20:28:29.115Z,100246.96
2018-06-30T20:30:57.874Z,100252.02
2018-06-30T20:33:26.786Z,100253.05
2018-06-30T20:35:55.756Z,100255.95
2018-06-30T20:38:24.341Z,100257.16
2018-06-30T20:40:52.920Z,100261.20
2018-06-30T20:43:22.133Z,100260.75
2018-06-30T20:45:50.715Z,100265.86
2018-06-30T20:48:19.356Z,100268.81
2018-06-30T20:50:48.562Z,100269.68
2018-06-30T20:53:20.425Z,100269.73
2018-06-30T20:55:55.241Z,100279.92
2018-06-30T20:58:23.833Z,100279.52
2018-06-30T21:00:52.492Z,100281.78
2018-06-30T21:03:22.515Z,100283.06
2018-06-30T21:05:51.073Z,100289.66
2018-06-30T21:08:19.941Z,100288.36
2018-06-30T21:10:48.520Z,100290.56
2018-06-30T21:13:17.076Z,100293.64
2018-06-30T21:15:45.629Z,100294.19
2018-06-30T21:18:14.567Z,100296.59
2018-06-30T21:20:43.265Z,100304.02
2018-06-30T21:23:11.767Z,100302.75
2018-06-30T21:25:42.802Z,100310.86
2018-06-30T21:28:11.384Z,100303.06
2018-06-30T21:30:44.402Z,100313.21
2018-06-30T21:33:12.920Z,100321.16
2018-06-30T21:35:41.470Z,100316.09
2018-06-30T21:40:51.496Z,100322.55
2018-06-30T21:43:20.023Z,100323.14
2018-06-30T21:45:49.020Z,100329.59
2018-06-30T21:48:23.390Z,100328.11
2018-06-30T21:50:52.332Z,100331.48
2018-06-30T21:53:20.868Z,100335.73
2018-06-30T21:55:49.480Z,100334.42
2018-06-30T21:58:22.212Z,100337.12
2018-06-30T22:00:56.141Z,100340.20
2018-06-30T22:03:27.012Z,100344.23
2018-06-30T22:05:57.283Z,100340.72
2018-06-30T22:08:26.416Z,100345.94
2018-06-30T22:10:55.552Z,100345.62
2018-06-30T22:13:24.437Z,100349.82
2018-06-30T22:15:53.145Z,100353.88
2018-06-30T22:18:21.807Z,100348.88
2018-06-30T22:20:52.764Z,100351.92
2018-06-30T22:23:21.330Z,100356.28
2018-06-30T22:25:49.895Z,100359.66
2018-06-30T22:28:18.928Z,100363.39
2018-06-30T22:30:47.575Z,100359.19
2018-06-30T22:33:16.128Z,100354.68
2018-06-30T22:35:44.931Z,100352.84
2018-06-30T22:38:19.625Z,100357.03
2018-06-30T22:40:48.272Z,100362.41
2018-06-30T22:43:17.188Z,100364.09
2018-06-30T22:45:45.689Z,100362.26
2018-06-30T22:48:14.259Z,100363.75
2018-06-30T22:50:43.106Z,100367.11
2018-06-30T22:53:11.643Z,100365.11
2018-06-30T22:55:40.246Z,100367.97
2018-06-30T22:58:09.308Z,100365.95
2018-06-30T23:00:37.977Z,100372.17
2018-06-30T23:03:12.677Z,100365.78
2018-06-30T23:05:42.240Z,100368.47
2018-06-30T23:08:10.940Z,100372.49
2018-06-30T23:10:39.545Z,100373.48
2018-06-30T23:13:08.086Z,100371.33
2018-06-30T23:15:37.048Z,100368.47
2018-06-30T23:18:05.633Z,100373.63
2018-06-30T23:20:44.794Z,100368.92
2018-06-30T23:23:13.360Z,100377.14
2018-06-30T23:25:42.175Z,100376.80
2018-06-30T23:28:13.104Z,100382.65
2018-06-30T23:30:42.542Z,100378.12
2018-06-30T23:33:17.050Z,100377.77
2018-06-30T23:35:45.562Z,100380.63
2018-06-30T23:38:16.207Z,100382.80
2018-06-30T23:40:45.143Z,100386.30
2018-06-30T23:43:18.507Z,100379.09
2018-06-30T23:45:47.047Z,100388.64
2018-06-30T23:48:15.971Z,100390.11
2018-06-30T23:50:44.519Z,100383.08
2018-06-30T23:53:13.015Z,100385.41
2018-06-30T23:55:48.511Z,100390.77
2018-06-30T23:58:17.027Z,100396.97
